sensor_id;sensor_type;location;lat;lon;timestamp;temperature;humidity
55313;DHT22;46892;45.668;11.756;2023-01-24T00:00:54;7.50;76.60
55313;DHT22;46892;45.668;11.756;2023-01-24T00:03:20;7.50;76.50
55313;DHT22;46892;45.668;11.756;2023-01-24T00:05:47;7.50;76.50
55313;DHT22;46892;45.668;11.756;2023-01-24T00:08:15;7.50;76.60
55313;DHT22;46892;45.668;11.756;2023-01-24T00:10:43;7.50;76.60
55313;DHT22;46892;45.668;11.756;2023-01-24T00:13:11;7.50;76.70
55313;DHT22;46892;45.668;11.756;2023-01-24T00:15:37;7.50;76.70
55313;DHT22;46892;45.668;11.756;2023-01-24T00:18:03;7.50;76.80
55313;DHT22;46892;45.668;11.756;2023-01-24T00:20:29;7.40;76.40
55313;DHT22;46892;45.668;11.756;2023-01-24T00:22:54;7.50;76.60
55313;DHT22;46892;45.668;11.756;2023-01-24T00:25:21;7.50;76.40
55313;DHT22;46892;45.668;11.756;2023-01-24T00:27:46;7.50;76.70
55313;DHT22;46892;45.668;11.756;2023-01-24T00:30:12;7.50;77.00
55313;DHT22;46892;45.668;11.756;2023-01-24T00:32:38;7.50;77.00
55313;DHT22;46892;45.668;11.756;2023-01-24T00:35:04;7.40;76.90
55313;DHT22;46892;45.668;11.756;2023-01-24T00:37:30;7.50;76.60
55313;DHT22;46892;45.668;11.756;2023-01-24T00:39:55;7.50;76.70
55313;DHT22;46892;45.668;11.756;2023-01-24T00:42:21;7.50;76.80
55313;DHT22;46892;45.668;11.756;2023-01-24T00:44:47;7.50;76.80
55313;DHT22;46892;45.668;11.756;2023-01-24T00:47:12;7.50;77.10
55313;DHT22;46892;45.668;11.756;2023-01-24T00:49:38;7.40;76.70
55313;DHT22;46892;45.668;11.756;2023-01-24T00:52:03;7.30;76.60
55313;DHT22;46892;45.668;11.756;2023-01-24T00:54:29;7.30;76.60
55313;DHT22;46892;45.668;11.756;2023-01-24T00:56:55;7.30;76.60
55313;DHT22;46892;45.668;11.756;2023-01-24T00:59:20;7.30;76.50
55313;DHT22;46892;45.668;11.756;2023-01-24T01:01:46;7.50;76.30
55313;DHT22;46892;45.668;11.756;2023-01-24T01:04:12;7.40;76.10
55313;DHT22;46892;45.668;11.756;2023-01-24T01:06:37;7.40;76.20
55313;DHT22;46892;45.668;11.756;2023-01-24T01:09:03;7.40;75.80
55313;DHT22;46892;45.668;11.756;2023-01-24T01:11:29;7.30;76.30
55313;DHT22;46892;45.668;11.756;2023-01-24T01:13:56;7.30;75.70
55313;DHT22;46892;45.668;11.756;2023-01-24T01:16:22;7.30;75.50
55313;DHT22;46892;45.668;11.756;2023-01-24T01:18:52;7.20;75.70
55313;DHT22;46892;45.668;11.756;2023-01-24T01:21:20;7.30;75.60
55313;DHT22;46892;45.668;11.756;2023-01-24T01:23:46;7.10;76.20
55313;DHT22;46892;45.668;11.756;2023-01-24T01:26:18;7.10;76.10
55313;DHT22;46892;45.668;11.756;2023-01-24T01:28:44;7.20;75.90
55313;DHT22;46892;45.668;11.756;2023-01-24T01:31:11;7.20;75.80
55313;DHT22;46892;45.668;11.756;2023-01-24T01:33:37;7.10;76.00
55313;DHT22;46892;45.668;11.756;2023-01-24T01:36:02;7.10;76.10
55313;DHT22;46892;45.668;11.756;2023-01-24T01:38:28;7.00;76.20
55313;DHT22;46892;45.668;11.756;2023-01-24T01:40:55;7.00;76.20
55313;DHT22;46892;45.668;11.756;2023-01-24T01:43:23;6.90;76.70
55313;DHT22;46892;45.668;11.756;2023-01-24T01:46:22;6.80;76.70
55313;DHT22;46892;45.668;11.756;2023-01-24T01:48:51;6.70;77.00
55313;DHT22;46892;45.668;11.756;2023-01-24T01:51:26;6.60;77.30
55313;DHT22;46892;45.668;11.756;2023-01-24T01:54:07;6.50;77.00
55313;DHT22;46892;45.668;11.756;2023-01-24T01:59:09;6.30;77.80
55313;DHT22;46892;45.668;11.756;2023-01-24T02:01:35;6.10;78.00
55313;DHT22;46892;45.668;11.756;2023-01-24T02:04:07;6.10;78.50
55313;DHT22;46892;45.668;11.756;2023-01-24T02:06:57;6.10;79.20
55313;DHT22;46892;45.668;11.756;2023-01-24T02:09:28;6.30;78.90
55313;DHT22;46892;45.668;11.756;2023-01-24T02:11:56;6.30;78.20
55313;DHT22;46892;45.668;11.756;2023-01-24T02:14:24;6.50;78.10
55313;DHT22;46892;45.668;11.756;2023-01-24T02:17:09;6.30;78.10
55313;DHT22;46892;45.668;11.756;2023-01-24T02:27:49;6.00;78.40
55313;DHT22;46892;45.668;11.756;2023-01-24T02:30:15;6.10;78.70
55313;DHT22;46892;45.668;11.756;2023-01-24T02:32:41;5.90;78.60
55313;DHT22;46892;45.668;11.756;2023-01-24T02:35:19;5.80;78.60
55313;DHT22;46892;45.668;11.756;2023-01-24T02:37:46;5.80;79.90
55313;DHT22;46892;45.668;11.756;2023-01-24T02:40:12;5.70;79.60
55313;DHT22;46892;45.668;11.756;2023-01-24T02:42:38;5.80;79.70
55313;DHT22;46892;45.668;11.756;2023-01-24T02:47:40;6.00;79.10
55313;DHT22;46892;45.668;11.756;2023-01-24T02:50:07;6.00;79.40
55313;DHT22;46892;45.668;11.756;2023-01-24T02:52:34;6.10;79.00
55313;DHT22;46892;45.668;11.756;2023-01-24T02:55:18;6.20;78.80
55313;DHT22;46892;45.668;11.756;2023-01-24T02:57:43;6.10;78.70
55313;DHT22;46892;45.668;11.756;2023-01-24T03:00:27;6.10;78.70
55313;DHT22;46892;45.668;11.756;2023-01-24T03:02:53;6.10;78.50
55313;DHT22;46892;45.668;11.756;2023-01-24T03:05:19;6.00;78.40
55313;DHT22;46892;45.668;11.756;2023-01-24T03:07:44;5.80;78.30
55313;DHT22;46892;45.668;11.756;2023-01-24T03:10:12;5.70;78.70
55313;DHT22;46892;45.668;11.756;2023-01-24T03:12:37;5.60;79.60
55313;DHT22;46892;45.668;11.756;2023-01-24T03:15:22;5.60;79.50
55313;DHT22;46892;45.668;11.756;2023-01-24T03:18:06;5.30;78.90
55313;DHT22;46892;45.668;11.756;2023-01-24T03:20:50;5.10;79.60
55313;DHT22;46892;45.668;11.756;2023-01-24T03:23:35;5.00;80.40
55313;DHT22;46892;45.668;11.756;2023-01-24T03:26:19;4.90;79.70
55313;DHT22;46892;45.668;11.756;2023-01-24T03:29:03;4.80;80.90
55313;DHT22;46892;45.668;11.756;2023-01-24T03:31:47;4.70;80.80
55313;DHT22;46892;45.668;11.756;2023-01-24T03:34:31;4.80;82.00
55313;DHT22;46892;45.668;11.756;2023-01-24T03:37:01;4.90;81.90
55313;DHT22;46892;45.668;11.756;2023-01-24T03:39:27;5.00;82.00
55313;DHT22;46892;45.668;11.756;2023-01-24T03:42:10;5.20;80.70
55313;DHT22;46892;45.668;11.756;2023-01-24T03:44:36;5.20;80.50
55313;DHT22;46892;45.668;11.756;2023-01-24T03:47:02;5.20;80.90
55313;DHT22;46892;45.668;11.756;2023-01-24T03:49:27;5.20;81.20
55313;DHT22;46892;45.668;11.756;2023-01-24T03:52:11;5.20;80.70
55313;DHT22;46892;45.668;11.756;2023-01-24T03:54:56;5.30;80.20
55313;DHT22;46892;45.668;11.756;2023-01-24T03:57:23;5.30;79.70
55313;DHT22;46892;45.668;11.756;2023-01-24T03:59:49;5.30;79.70
55313;DHT22;46892;45.668;11.756;2023-01-24T04:02:15;5.20;79.70
55313;DHT22;46892;45.668;11.756;2023-01-24T04:04:41;5.10;80.20
55313;DHT22;46892;45.668;11.756;2023-01-24T04:07:26;5.00;80.00
55313;DHT22;46892;45.668;11.756;2023-01-24T04:09:52;4.90;81.30
55313;DHT22;46892;45.668;11.756;2023-01-24T04:12:17;4.90;81.40
55313;DHT22;46892;45.668;11.756;2023-01-24T04:14:43;4.90;81.40
55313;DHT22;46892;45.668;11.756;2023-01-24T04:17:09;4.90;81.00
55313;DHT22;46892;45.668;11.756;2023-01-24T04:19:35;4.80;81.10
55313;DHT22;46892;45.668;11.756;2023-01-24T04:22:00;4.80;81.60
55313;DHT22;46892;45.668;11.756;2023-01-24T04:24:26;4.90;81.80
55313;DHT22;46892;45.668;11.756;2023-01-24T04:26:52;5.00;81.30
55313;DHT22;46892;45.668;11.756;2023-01-24T04:29:17;5.00;80.90
55313;DHT22;46892;45.668;11.756;2023-01-24T04:31:43;5.30;80.80
55313;DHT22;46892;45.668;11.756;2023-01-24T04:34:09;5.30;80.40
55313;DHT22;46892;45.668;11.756;2023-01-24T04:36:34;5.30;80.30
55313;DHT22;46892;45.668;11.756;2023-01-24T04:39:00;5.30;80.40
55313;DHT22;46892;45.668;11.756;2023-01-24T04:41:26;5.30;80.30
55313;DHT22;46892;45.668;11.756;2023-01-24T04:43:51;5.30;80.30
55313;DHT22;46892;45.668;11.756;2023-01-24T04:46:17;5.00;79.40
55313;DHT22;46892;45.668;11.756;2023-01-24T04:48:43;4.80;81.10
55313;DHT22;46892;45.668;11.756;2023-01-24T04:51:08;4.80;81.40
55313;DHT22;46892;45.668;11.756;2023-01-24T04:53:41;4.90;81.30
55313;DHT22;46892;45.668;11.756;2023-01-24T04:56:07;4.90;81.20
55313;DHT22;46892;45.668;11.756;2023-01-24T04:58:34;5.00;80.70
55313;DHT22;46892;45.668;11.756;2023-01-24T05:00:59;4.80;80.40
55313;DHT22;46892;45.668;11.756;2023-01-24T05:03:25;4.70;79.90
55313;DHT22;46892;45.668;11.756;2023-01-24T05:05:52;4.50;80.90
55313;DHT22;46892;45.668;11.756;2023-01-24T05:08:18;4.50;81.40
55313;DHT22;46892;45.668;11.756;2023-01-24T05:10:44;4.50;81.20
55313;DHT22;46892;45.668;11.756;2023-01-24T05:13:10;4.40;81.50
55313;DHT22;46892;45.668;11.756;2023-01-24T05:15:36;4.40;81.70
55313;DHT22;46892;45.668;11.756;2023-01-24T05:18:03;4.30;81.00
55313;DHT22;46892;45.668;11.756;2023-01-24T05:20:29;4.30;81.50
55313;DHT22;46892;45.668;11.756;2023-01-24T05:22:56;4.20;81.20
55313;DHT22;46892;45.668;11.756;2023-01-24T05:25:21;3.90;80.40
55313;DHT22;46892;45.668;11.756;2023-01-24T05:27:47;3.80;81.30
55313;DHT22;46892;45.668;11.756;2023-01-24T05:30:13;3.90;82.10
55313;DHT22;46892;45.668;11.756;2023-01-24T05:32:39;4.10;82.30
55313;DHT22;46892;45.668;11.756;2023-01-24T05:35:06;4.20;81.90
55313;DHT22;46892;45.668;11.756;2023-01-24T05:37:32;4.10;82.00
55313;DHT22;46892;45.668;11.756;2023-01-24T05:39:57;4.10;82.20
55313;DHT22;46892;45.668;11.756;2023-01-24T05:42:23;4.30;81.90
55313;DHT22;46892;45.668;11.756;2023-01-24T05:44:49;4.60;81.10
55313;DHT22;46892;45.668;11.756;2023-01-24T05:47:14;4.40;80.70
55313;DHT22;46892;45.668;11.756;2023-01-24T05:49:40;4.30;80.60
55313;DHT22;46892;45.668;11.756;2023-01-24T05:52:06;4.30;81.00
55313;DHT22;46892;45.668;11.756;2023-01-24T05:54:31;4.40;80.80
55313;DHT22;46892;45.668;11.756;2023-01-24T05:56:57;4.40;81.10
55313;DHT22;46892;45.668;11.756;2023-01-24T05:59:23;4.50;81.40
55313;DHT22;46892;45.668;11.756;2023-01-24T06:01:48;4.60;81.30
55313;DHT22;46892;45.668;11.756;2023-01-24T06:04:14;5.00;80.80
55313;DHT22;46892;45.668;11.756;2023-01-24T06:06:40;5.10;79.90
55313;DHT22;46892;45.668;11.756;2023-01-24T06:09:05;5.00;79.70
55313;DHT22;46892;45.668;11.756;2023-01-24T06:11:31;5.20;79.60
55313;DHT22;46892;45.668;11.756;2023-01-24T06:13:58;5.10;79.40
55313;DHT22;46892;45.668;11.756;2023-01-24T06:16:25;5.30;79.20
55313;DHT22;46892;45.668;11.756;2023-01-24T06:18:52;5.00;79.40
55313;DHT22;46892;45.668;11.756;2023-01-24T06:23:58;5.10;79.70
55313;DHT22;46892;45.668;11.756;2023-01-24T06:26:24;5.00;79.90
55313;DHT22;46892;45.668;11.756;2023-01-24T06:28:50;5.10;79.40
55313;DHT22;46892;45.668;11.756;2023-01-24T06:39:33;4.90;79.60
55313;DHT22;46892;45.668;11.756;2023-01-24T06:41:59;4.90;79.70
55313;DHT22;46892;45.668;11.756;2023-01-24T06:44:25;4.90;79.90
55313;DHT22;46892;45.668;11.756;2023-01-24T06:46:51;4.80;79.80
55313;DHT22;46892;45.668;11.756;2023-01-24T06:49:16;4.70;80.10
55313;DHT22;46892;45.668;11.756;2023-01-24T06:51:42;4.70;80.40
55313;DHT22;46892;45.668;11.756;2023-01-24T06:54:08;4.80;80.30
55313;DHT22;46892;45.668;11.756;2023-01-24T06:56:33;4.50;79.30
55313;DHT22;46892;45.668;11.756;2023-01-24T06:58:59;4.50;81.20
55313;DHT22;46892;45.668;11.756;2023-01-24T07:01:25;4.90;80.40
55313;DHT22;46892;45.668;11.756;2023-01-24T07:03:50;5.00;78.60
55313;DHT22;46892;45.668;11.756;2023-01-24T07:06:16;4.90;78.70
55313;DHT22;46892;45.668;11.756;2023-01-24T07:08:42;5.00;79.10
55313;DHT22;46892;45.668;11.756;2023-01-24T07:11:07;5.20;78.60
55313;DHT22;46892;45.668;11.756;2023-01-24T07:13:33;5.30;78.20
55313;DHT22;46892;45.668;11.756;2023-01-24T07:16:02;5.30;78.00
55313;DHT22;46892;45.668;11.756;2023-01-24T07:18:28;5.50;77.90
55313;DHT22;46892;45.668;11.756;2023-01-24T07:20:54;5.60;78.00
55313;DHT22;46892;45.668;11.756;2023-01-24T07:23:21;5.80;78.30
55313;DHT22;46892;45.668;11.756;2023-01-24T07:25:49;5.90;76.90
55313;DHT22;46892;45.668;11.756;2023-01-24T07:28:15;6.10;76.90
55313;DHT22;46892;45.668;11.756;2023-01-24T07:30:41;6.30;77.20
55313;DHT22;46892;45.668;11.756;2023-01-24T07:33:06;6.70;76.50
55313;DHT22;46892;45.668;11.756;2023-01-24T07:35:32;6.80;74.90
55313;DHT22;46892;45.668;11.756;2023-01-24T07:37:58;6.90;74.20
55313;DHT22;46892;45.668;11.756;2023-01-24T07:40:25;6.90;74.60
55313;DHT22;46892;45.668;11.756;2023-01-24T07:42:51;7.10;73.80
55313;DHT22;46892;45.668;11.756;2023-01-24T07:45:16;7.00;74.40
55313;DHT22;46892;45.668;11.756;2023-01-24T07:47:42;7.10;74.80
55313;DHT22;46892;45.668;11.756;2023-01-24T07:50:08;7.10;74.80
55313;DHT22;46892;45.668;11.756;2023-01-24T07:52:34;7.30;74.70
55313;DHT22;46892;45.668;11.756;2023-01-24T07:54:59;7.20;74.50
55313;DHT22;46892;45.668;11.756;2023-01-24T07:57:25;7.30;75.00
55313;DHT22;46892;45.668;11.756;2023-01-24T07:59:51;7.70;73.70
55313;DHT22;46892;45.668;11.756;2023-01-24T08:02:19;7.70;74.00
55313;DHT22;46892;45.668;11.756;2023-01-24T08:04:45;7.70;73.60
55313;DHT22;46892;45.668;11.756;2023-01-24T08:07:10;7.80;73.90
55313;DHT22;46892;45.668;11.756;2023-01-24T08:09:42;7.90;72.90
55313;DHT22;46892;45.668;11.756;2023-01-24T08:12:07;7.90;73.30
55313;DHT22;46892;45.668;11.756;2023-01-24T08:14:33;8.00;72.80
55313;DHT22;46892;45.668;11.756;2023-01-24T08:16:59;8.20;72.70
55313;DHT22;46892;45.668;11.756;2023-01-24T08:19:24;8.30;72.40
55313;DHT22;46892;45.668;11.756;2023-01-24T08:21:50;8.50;71.80
55313;DHT22;46892;45.668;11.756;2023-01-24T08:24:16;8.80;72.90
55313;DHT22;46892;45.668;11.756;2023-01-24T08:26:41;9.20;73.20
55313;DHT22;46892;45.668;11.756;2023-01-24T08:29:11;9.50;71.80
55313;DHT22;46892;45.668;11.756;2023-01-24T08:31:37;9.80;71.10
55313;DHT22;46892;45.668;11.756;2023-01-24T08:34:03;10.00;68.70
55313;DHT22;46892;45.668;11.756;2023-01-24T08:36:29;10.10;68.50
55313;DHT22;46892;45.668;11.756;2023-01-24T08:38:54;10.10;67.10
55313;DHT22;46892;45.668;11.756;2023-01-24T08:41:20;10.00;67.20
55313;DHT22;46892;45.668;11.756;2023-01-24T08:43:45;10.00;66.90
55313;DHT22;46892;45.668;11.756;2023-01-24T08:46:11;10.00;66.20
55313;DHT22;46892;45.668;11.756;2023-01-24T08:48:37;10.00;66.40
55313;DHT22;46892;45.668;11.756;2023-01-24T08:51:04;10.00;67.10
55313;DHT22;46892;45.668;11.756;2023-01-24T08:53:30;9.90;66.60
55313;DHT22;46892;45.668;11.756;2023-01-24T08:55:56;9.80;67.40
55313;DHT22;46892;45.668;11.756;2023-01-24T08:58:22;9.80;67.30
55313;DHT22;46892;45.668;11.756;2023-01-24T09:00:47;9.70;68.00
55313;DHT22;46892;45.668;11.756;2023-01-24T09:03:16;9.70;67.80
55313;DHT22;46892;45.668;11.756;2023-01-24T09:05:42;9.70;68.50
55313;DHT22;46892;45.668;11.756;2023-01-24T09:08:08;9.60;68.70
55313;DHT22;46892;45.668;11.756;2023-01-24T09:10:35;9.60;67.40
55313;DHT22;46892;45.668;11.756;2023-01-24T09:13:01;9.70;68.40
55313;DHT22;46892;45.668;11.756;2023-01-24T09:15:27;9.60;67.70
55313;DHT22;46892;45.668;11.756;2023-01-24T09:17:53;9.50;69.00
55313;DHT22;46892;45.668;11.756;2023-01-24T09:20:18;9.40;68.30
55313;DHT22;46892;45.668;11.756;2023-01-24T09:22:44;9.40;70.10
55313;DHT22;46892;45.668;11.756;2023-01-24T09:25:10;9.40;69.10
55313;DHT22;46892;45.668;11.756;2023-01-24T09:27:37;9.40;69.20
55313;DHT22;46892;45.668;11.756;2023-01-24T09:30:03;9.50;69.10
55313;DHT22;46892;45.668;11.756;2023-01-24T09:32:30;9.50;67.90
55313;DHT22;46892;45.668;11.756;2023-01-24T09:34:56;9.60;68.80
55313;DHT22;46892;45.668;11.756;2023-01-24T09:37:22;9.60;67.70
55313;DHT22;46892;45.668;11.756;2023-01-24T09:39:48;9.80;70.20
55313;DHT22;46892;45.668;11.756;2023-01-24T09:42:43;9.80;67.70
55313;DHT22;46892;45.668;11.756;2023-01-24T09:45:30;9.90;67.50
55313;DHT22;46892;45.668;11.756;2023-01-24T09:50:45;10.10;67.50
55313;DHT22;46892;45.668;11.756;2023-01-24T09:53:24;10.10;67.90
55313;DHT22;46892;45.668;11.756;2023-01-24T09:55:51;10.00;66.70
55313;DHT22;46892;45.668;11.756;2023-01-24T09:58:34;10.00;66.30
55313;DHT22;46892;45.668;11.756;2023-01-24T10:01:07;10.00;66.20
55313;DHT22;46892;45.668;11.756;2023-01-24T10:03:35;10.10;64.60
55313;DHT22;46892;45.668;11.756;2023-01-24T10:06:14;9.90;63.70
55313;DHT22;46892;45.668;11.756;2023-01-24T10:09:09;9.90;63.00
55313;DHT22;46892;45.668;11.756;2023-01-24T10:17:21;10.30;65.30
55313;DHT22;46892;45.668;11.756;2023-01-24T10:19:58;10.30;64.50
55313;DHT22;46892;45.668;11.756;2023-01-24T10:25:17;10.30;63.10
55313;DHT22;46892;45.668;11.756;2023-01-24T10:27:47;10.30;64.90
55313;DHT22;46892;45.668;11.756;2023-01-24T10:30:18;10.30;64.60
55313;DHT22;46892;45.668;11.756;2023-01-24T10:32:46;10.30;63.10
55313;DHT22;46892;45.668;11.756;2023-01-24T10:35:27;10.50;61.80
55313;DHT22;46892;45.668;11.756;2023-01-24T10:37:57;10.50;62.60
55313;DHT22;46892;45.668;11.756;2023-01-24T10:40:24;10.60;62.70
55313;DHT22;46892;45.668;11.756;2023-01-24T10:42:51;10.70;61.80
55313;DHT22;46892;45.668;11.756;2023-01-24T10:48:09;10.60;62.40
55313;DHT22;46892;45.668;11.756;2023-01-24T10:50:42;10.50;62.10
55313;DHT22;46892;45.668;11.756;2023-01-24T10:53:24;10.50;62.20
55313;DHT22;46892;45.668;11.756;2023-01-24T10:56:03;10.60;61.60
55313;DHT22;46892;45.668;11.756;2023-01-24T10:58:35;10.70;61.40
55313;DHT22;46892;45.668;11.756;2023-01-24T11:01:08;10.70;60.80
55313;DHT22;46892;45.668;11.756;2023-01-24T11:03:40;10.70;61.90
55313;DHT22;46892;45.668;11.756;2023-01-24T11:06:27;10.80;63.40
55313;DHT22;46892;45.668;11.756;2023-01-24T11:09:27;10.80;62.50
55313;DHT22;46892;45.668;11.756;2023-01-24T11:11:57;10.60;63.70
55313;DHT22;46892;45.668;11.756;2023-01-24T11:14:28;10.60;64.60
55313;DHT22;46892;45.668;11.756;2023-01-24T11:16:58;10.60;65.60
55313;DHT22;46892;45.668;11.756;2023-01-24T11:19:37;10.70;64.70
55313;DHT22;46892;45.668;11.756;2023-01-24T11:22:22;10.70;64.60
55313;DHT22;46892;45.668;11.756;2023-01-24T11:24:48;10.60;64.70
55313;DHT22;46892;45.668;11.756;2023-01-24T11:27:20;10.60;63.40
55313;DHT22;46892;45.668;11.756;2023-01-24T11:48:53;11.20;63.00
55313;DHT22;46892;45.668;11.756;2023-01-24T11:54:52;11.20;60.60
55313;DHT22;46892;45.668;11.756;2023-01-24T12:05:46;11.00;60.70
55313;DHT22;46892;45.668;11.756;2023-01-24T12:19:42;10.80;62.10
55313;DHT22;46892;45.668;11.756;2023-01-24T12:22:23;10.80;62.40
55313;DHT22;46892;45.668;11.756;2023-01-24T12:25:16;10.80;62.70
55313;DHT22;46892;45.668;11.756;2023-01-24T12:27:45;10.80;62.50
55313;DHT22;46892;45.668;11.756;2023-01-24T12:32:49;10.70;60.60
55313;DHT22;46892;45.668;11.756;2023-01-24T12:43:16;10.90;60.50
55313;DHT22;46892;45.668;11.756;2023-01-24T12:51:43;11.00;61.10
55313;DHT22;46892;45.668;11.756;2023-01-24T12:54:16;11.00;61.00
55313;DHT22;46892;45.668;11.756;2023-01-24T12:56:52;11.00;60.20
55313;DHT22;46892;45.668;11.756;2023-01-24T12:59:23;10.90;61.80
55313;DHT22;46892;45.668;11.756;2023-01-24T13:02:21;11.00;63.00
55313;DHT22;46892;45.668;11.756;2023-01-24T13:05:01;11.00;60.90
55313;DHT22;46892;45.668;11.756;2023-01-24T13:07:52;11.00;60.40
55313;DHT22;46892;45.668;11.756;2023-01-24T13:13:57;11.10;60.70
55313;DHT22;46892;45.668;11.756;2023-01-24T13:16:29;11.20;61.10
55313;DHT22;46892;45.668;11.756;2023-01-24T13:21:36;11.10;61.60
55313;DHT22;46892;45.668;11.756;2023-01-24T13:32:08;11.20;61.60
55313;DHT22;46892;45.668;11.756;2023-01-24T13:34:36;11.20;60.80
55313;DHT22;46892;45.668;11.756;2023-01-24T13:37:03;11.20;61.50
55313;DHT22;46892;45.668;11.756;2023-01-24T13:39:37;11.30;61.90
55313;DHT22;46892;45.668;11.756;2023-01-24T13:42:31;11.30;62.00
55313;DHT22;46892;45.668;11.756;2023-01-24T13:44:57;11.20;61.90
55313;DHT22;46892;45.668;11.756;2023-01-24T13:47:25;11.30;60.60
55313;DHT22;46892;45.668;11.756;2023-01-24T14:10:49;11.00;62.10
55313;DHT22;46892;45.668;11.756;2023-01-24T14:21:20;10.90;64.10
55313;DHT22;46892;45.668;11.756;2023-01-24T14:23:50;10.90;64.60
55313;DHT22;46892;45.668;11.756;2023-01-24T14:26:22;10.80;63.80
55313;DHT22;46892;45.668;11.756;2023-01-24T14:28:54;10.80;64.50
55313;DHT22;46892;45.668;11.756;2023-01-24T14:31:24;10.80;65.40
55313;DHT22;46892;45.668;11.756;2023-01-24T14:33:52;10.70;65.50
55313;DHT22;46892;45.668;11.756;2023-01-24T14:36:32;10.70;66.50
55313;DHT22;46892;45.668;11.756;2023-01-24T14:39:20;10.70;66.90
55313;DHT22;46892;45.668;11.756;2023-01-24T14:42:00;10.60;67.60
55313;DHT22;46892;45.668;11.756;2023-01-24T14:46:55;10.50;68.10
55313;DHT22;46892;45.668;11.756;2023-01-24T14:49:51;10.60;66.70
55313;DHT22;46892;45.668;11.756;2023-01-24T14:52:28;10.60;65.70
55313;DHT22;46892;45.668;11.756;2023-01-24T14:54:57;10.50;65.80
55313;DHT22;46892;45.668;11.756;2023-01-24T14:57:27;10.50;65.70
55313;DHT22;46892;45.668;11.756;2023-01-24T15:02:39;10.30;66.90
55313;DHT22;46892;45.668;11.756;2023-01-24T15:07:51;10.10;68.10
55313;DHT22;46892;45.668;11.756;2023-01-24T15:10:26;10.00;69.10
55313;DHT22;46892;45.668;11.756;2023-01-24T15:12:58;9.80;70.00
55313;DHT22;46892;45.668;11.756;2023-01-24T15:15:25;9.70;70.30
55313;DHT22;46892;45.668;11.756;2023-01-24T15:17:54;9.50;70.50
55313;DHT22;46892;45.668;11.756;2023-01-24T15:20:23;9.30;70.60
55313;DHT22;46892;45.668;11.756;2023-01-24T15:22:53;9.30;70.80
55313;DHT22;46892;45.668;11.756;2023-01-24T15:25:20;9.20;70.80
55313;DHT22;46892;45.668;11.756;2023-01-24T15:27:47;9.20;70.10
55313;DHT22;46892;45.668;11.756;2023-01-24T15:30:21;9.10;69.60
55313;DHT22;46892;45.668;11.756;2023-01-24T15:32:48;9.10;69.50
55313;DHT22;46892;45.668;11.756;2023-01-24T15:35:36;9.00;69.00
55313;DHT22;46892;45.668;11.756;2023-01-24T15:38:27;9.10;69.20
55313;DHT22;46892;45.668;11.756;2023-01-24T15:44:01;9.10;70.40
55313;DHT22;46892;45.668;11.756;2023-01-24T15:46:30;9.10;70.90
55313;DHT22;46892;45.668;11.756;2023-01-24T15:49:25;9.10;71.00
55313;DHT22;46892;45.668;11.756;2023-01-24T15:54:34;9.00;71.00
55313;DHT22;46892;45.668;11.756;2023-01-24T15:59:46;8.90;71.70
55313;DHT22;46892;45.668;11.756;2023-01-24T16:02:13;8.90;73.00
55313;DHT22;46892;45.668;11.756;2023-01-24T16:04:39;8.80;73.30
55313;DHT22;46892;45.668;11.756;2023-01-24T16:07:06;8.70;73.50
55313;DHT22;46892;45.668;11.756;2023-01-24T16:09:32;8.70;73.80
55313;DHT22;46892;45.668;11.756;2023-01-24T16:11:58;8.70;73.50
55313;DHT22;46892;45.668;11.756;2023-01-24T16:14:25;8.70;73.30
55313;DHT22;46892;45.668;11.756;2023-01-24T16:16:55;8.70;73.10
55313;DHT22;46892;45.668;11.756;2023-01-24T16:19:25;8.70;73.10
55313;DHT22;46892;45.668;11.756;2023-01-24T16:21:51;8.70;73.10
55313;DHT22;46892;45.668;11.756;2023-01-24T16:24:17;8.70;73.20
55313;DHT22;46892;45.668;11.756;2023-01-24T16:26:48;8.70;73.10
55313;DHT22;46892;45.668;11.756;2023-01-24T16:29:19;8.70;73.10
55313;DHT22;46892;45.668;11.756;2023-01-24T16:31:45;8.70;73.00
55313;DHT22;46892;45.668;11.756;2023-01-24T16:34:11;8.70;73.40
55313;DHT22;46892;45.668;11.756;2023-01-24T16:36:38;8.70;73.80
55313;DHT22;46892;45.668;11.756;2023-01-24T16:39:04;8.70;73.80
55313;DHT22;46892;45.668;11.756;2023-01-24T16:41:31;8.70;73.60
55313;DHT22;46892;45.668;11.756;2023-01-24T16:43:57;8.80;73.20
55313;DHT22;46892;45.668;11.756;2023-01-24T16:46:23;8.90;73.00
55313;DHT22;46892;45.668;11.756;2023-01-24T16:48:49;8.80;73.50
55313;DHT22;46892;45.668;11.756;2023-01-24T16:51:16;8.90;74.00
55313;DHT22;46892;45.668;11.756;2023-01-24T16:53:43;8.80;74.50
55313;DHT22;46892;45.668;11.756;2023-01-24T16:56:09;8.70;75.00
55313;DHT22;46892;45.668;11.756;2023-01-24T16:58:35;8.60;75.50
55313;DHT22;46892;45.668;11.756;2023-01-24T17:01:11;8.50;75.70
55313;DHT22;46892;45.668;11.756;2023-01-24T17:03:37;8.50;75.70
55313;DHT22;46892;45.668;11.756;2023-01-24T17:06:11;8.50;75.70
55313;DHT22;46892;45.668;11.756;2023-01-24T17:08:38;8.40;75.90
55313;DHT22;46892;45.668;11.756;2023-01-24T17:11:06;8.50;76.00
55313;DHT22;46892;45.668;11.756;2023-01-24T17:13:32;8.50;76.20
55313;DHT22;46892;45.668;11.756;2023-01-24T17:16:04;8.50;76.50
55313;DHT22;46892;45.668;11.756;2023-01-24T17:18:30;8.50;76.80
55313;DHT22;46892;45.668;11.756;2023-01-24T17:21:03;8.50;76.60
55313;DHT22;46892;45.668;11.756;2023-01-24T17:23:30;8.50;76.80
55313;DHT22;46892;45.668;11.756;2023-01-24T17:26:03;8.50;77.30
55313;DHT22;46892;45.668;11.756;2023-01-24T17:28:29;8.60;77.80
55313;DHT22;46892;45.668;11.756;2023-01-24T17:30:55;8.50;78.00
55313;DHT22;46892;45.668;11.756;2023-01-24T17:33:21;8.50;78.20
55313;DHT22;46892;45.668;11.756;2023-01-24T17:35:47;8.50;78.30
55313;DHT22;46892;45.668;11.756;2023-01-24T17:38:13;8.50;78.70
55313;DHT22;46892;45.668;11.756;2023-01-24T17:40:38;8.30;79.30
55313;DHT22;46892;45.668;11.756;2023-01-24T17:43:04;8.30;79.60
55313;DHT22;46892;45.668;11.756;2023-01-24T17:45:30;8.20;80.00
55313;DHT22;46892;45.668;11.756;2023-01-24T17:47:56;8.20;80.20
55313;DHT22;46892;45.668;11.756;2023-01-24T17:50:21;8.20;80.20
55313;DHT22;46892;45.668;11.756;2023-01-24T17:52:48;8.20;80.10
55313;DHT22;46892;45.668;11.756;2023-01-24T17:55:14;8.20;80.30
55313;DHT22;46892;45.668;11.756;2023-01-24T17:57:41;8.20;80.40
55313;DHT22;46892;45.668;11.756;2023-01-24T18:00:08;8.20;80.20
55313;DHT22;46892;45.668;11.756;2023-01-24T18:02:34;8.20;80.20
55313;DHT22;46892;45.668;11.756;2023-01-24T18:05:00;8.20;80.40
55313;DHT22;46892;45.668;11.756;2023-01-24T18:07:25;8.20;80.50
55313;DHT22;46892;45.668;11.756;2023-01-24T18:09:51;8.20;80.50
55313;DHT22;46892;45.668;11.756;2023-01-24T18:12:17;8.10;80.80
55313;DHT22;46892;45.668;11.756;2023-01-24T18:14:42;8.00;80.90
55313;DHT22;46892;45.668;11.756;2023-01-24T18:17:08;8.00;81.00